createdAt,value
2022-08-28T00:01:20.035Z,21.60
2022-08-28T00:03:50.277Z,17.23
2022-08-28T00:06:20.141Z,13.93
2022-08-28T00:08:49.985Z,15.30
2022-08-28T00:11:20.468Z,23.43
2022-08-28T00:13:53.253Z,18.43
2022-08-28T00:16:26.658Z,16.00
2022-08-28T00:18:56.474Z,23.00
2022-08-28T00:21:26.418Z,16.37
2022-08-28T00:23:56.388Z,23.10
2022-08-28T00:26:38.410Z,18.23
2022-08-28T00:29:11.122Z,19.30
2022-08-28T00:31:41.212Z,24.37
2022-08-28T00:34:12.249Z,19.83
2022-08-28T00:36:42.085Z,16.17
2022-08-28T00:39:12.689Z,20.50
2022-08-28T00:41:43.395Z,20.33
2022-08-28T00:44:18.635Z,21.87
2022-08-28T00:46:52.093Z,23.00
2022-08-28T00:49:26.126Z,16.17
2022-08-28T00:52:11.925Z,22.97
2022-08-28T00:54:58.842Z,36.93
2022-08-28T00:57:32.945Z,15.87
2022-08-28T01:00:07.289Z,19.07
2022-08-28T01:02:37.051Z,15.37
2022-08-28T01:05:09.919Z,19.87
2022-08-28T01:07:39.897Z,20.27
2022-08-28T01:10:13.850Z,25.83
2022-08-28T01:12:44.049Z,27.37
2022-08-28T01:15:20.395Z,21.17
2022-08-28T01:17:56.548Z,21.33
2022-08-28T01:20:29.909Z,18.47
2022-08-28T01:23:07.877Z,19.10
2022-08-28T01:25:41.422Z,17.00
2022-08-28T01:28:14.783Z,17.43
2022-08-28T01:30:48.653Z,20.67
2022-08-28T01:33:19.575Z,14.57
2022-08-28T01:35:57.856Z,13.73
2022-08-28T01:38:27.821Z,19.77
2022-08-28T01:41:00.631Z,17.53
2022-08-28T01:43:31.838Z,22.07
2022-08-28T01:46:04.600Z,20.53
2022-08-28T01:48:37.189Z,13.97
2022-08-28T01:51:08.465Z,16.37
2022-08-28T01:53:38.706Z,15.43
2022-08-28T01:56:14.655Z,20.73
2022-08-28T01:58:44.550Z,14.20
2022-08-28T02:01:15.150Z,12.57
2022-08-28T02:03:45.469Z,11.17
2022-08-28T02:06:16.658Z,16.77
2022-08-28T02:08:46.795Z,13.80
2022-08-28T02:11:19.626Z,14.13
2022-08-28T02:13:50.832Z,18.97
2022-08-28T02:16:20.797Z,19.93
2022-08-28T02:18:50.543Z,15.73
2022-08-28T02:21:20.469Z,11.93
2022-08-28T02:23:50.306Z,11.77
2022-08-28T02:26:23.562Z,16.43
2022-08-28T02:28:53.233Z,23.87
2022-08-28T02:31:22.949Z,20.57
2022-08-28T02:33:52.910Z,17.83
2022-08-28T02:36:24.554Z,22.67
2022-08-28T02:38:57.717Z,13.07
2022-08-28T02:41:30.346Z,23.33
2022-08-28T02:44:00.022Z,11.90
2022-08-28T02:46:29.761Z,13.53
2022-08-28T02:48:59.709Z,20.93
2022-08-28T02:51:33.513Z,14.20
2022-08-28T02:54:04.066Z,14.17
2022-08-28T02:56:36.348Z,17.03
2022-08-28T02:59:06.524Z,12.50
2022-08-28T03:01:36.878Z,17.50
2022-08-28T03:04:06.914Z,18.67
2022-08-28T03:06:36.653Z,19.73
2022-08-28T03:09:06.809Z,20.40
2022-08-28T03:11:41.467Z,17.40
2022-08-28T03:14:11.183Z,16.30
2022-08-28T03:16:40.930Z,26.90
2022-08-28T03:19:10.630Z,11.37
2022-08-28T03:21:40.891Z,18.50
2022-08-28T03:24:11.130Z,18.57
2022-08-28T03:26:47.531Z,15.03
2022-08-28T03:29:17.282Z,21.87
2022-08-28T03:31:46.961Z,18.63
2022-08-28T03:34:16.618Z,13.80
2022-08-28T03:36:46.311Z,15.90
2022-08-28T03:39:16.386Z,22.07
2022-08-28T03:41:48.622Z,17.20
2022-08-28T03:44:18.609Z,16.20
2022-08-28T03:46:48.270Z,17.67
2022-08-28T03:49:18.858Z,18.37
2022-08-28T03:51:50.217Z,22.53
2022-08-28T03:54:19.882Z,16.13
2022-08-28T03:56:52.187Z,16.10
2022-08-28T03:59:22.261Z,14.53
2022-08-28T04:01:56.329Z,27.13
2022-08-28T04:04:26.201Z,26.73
2022-08-28T04:06:55.861Z,19.33
2022-08-28T04:09:25.637Z,14.40
2022-08-28T04:11:57.963Z,27.83
2022-08-28T04:14:27.632Z,20.80
2022-08-28T04:17:01.303Z,24.40
2022-08-28T04:19:31.277Z,13.43
2022-08-28T04:22:01.321Z,16.00
2022-08-28T04:24:31.031Z,23.67
2022-08-28T04:27:03.287Z,23.63
2022-08-28T04:29:33.000Z,25.30
2022-08-28T04:32:02.835Z,17.13
2022-08-28T04:34:32.730Z,18.57
2022-08-28T04:37:02.381Z,20.60
2022-08-28T04:39:32.095Z,22.47
2022-08-28T04:42:04.452Z,15.50
2022-08-28T04:44:34.125Z,19.70
2022-08-28T04:47:04.087Z,25.10
2022-08-28T04:49:36.083Z,27.50
2022-08-28T04:52:07.030Z,21.80
2022-08-28T04:54:37.259Z,16.00
2022-08-28T04:57:09.703Z,20.87
2022-08-28T04:59:39.573Z,21.33
2022-08-28T05:02:09.367Z,19.23
2022-08-28T05:04:39.095Z,25.13
2022-08-28T05:07:08.803Z,17.00
2022-08-28T05:09:39.057Z,15.00
2022-08-28T05:12:17.132Z,28.93
2022-08-28T05:14:47.973Z,22.20
2022-08-28T05:17:18.427Z,16.40
2022-08-28T05:19:48.276Z,20.40
2022-08-28T05:22:17.967Z,22.83
2022-08-28T05:24:47.909Z,19.43
2022-08-28T05:27:20.169Z,15.80
2022-08-28T05:29:55.494Z,18.30
2022-08-28T05:32:28.538Z,18.13
2022-08-28T05:34:58.229Z,16.00
2022-08-28T05:37:27.929Z,18.30
2022-08-28T05:39:57.609Z,19.50
2022-08-28T05:42:30.956Z,20.67
2022-08-28T05:45:01.532Z,18.20
2022-08-28T05:47:32.744Z,16.23
2022-08-28T05:50:04.518Z,20.17
2022-08-28T05:52:34.417Z,22.37
2022-08-28T05:55:05.197Z,12.43
2022-08-28T05:57:37.449Z,21.40
2022-08-28T06:00:09.919Z,27.60
2022-08-28T06:02:40.867Z,24.27
2022-08-28T06:05:13.035Z,21.07
2022-08-28T06:07:45.082Z,22.07
2022-08-28T06:10:15.813Z,18.57
2022-08-28T06:12:49.339Z,11.80
2022-08-28T06:15:20.446Z,16.57
2022-08-28T06:17:50.344Z,18.07
2022-08-28T06:20:20.957Z,13.40
2022-08-28T06:22:53.171Z,22.57
2022-08-28T06:25:23.889Z,17.20
2022-08-28T06:27:57.226Z,18.53
2022-08-28T06:30:27.009Z,17.47
2022-08-28T06:33:00.034Z,18.23
2022-08-28T06:35:31.311Z,25.30
2022-08-28T06:38:01.932Z,17.90
2022-08-28T06:40:32.769Z,18.80
2022-08-28T06:43:05.102Z,15.40
2022-08-28T06:45:36.277Z,12.17
2022-08-28T06:48:06.577Z,22.93
2022-08-28T06:50:36.278Z,17.40
2022-08-28T06:53:06.096Z,17.43
2022-08-28T06:55:36.027Z,25.63
2022-08-28T06:58:12.552Z,13.70
2022-08-28T07:00:44.412Z,15.53
2022-08-28T07:03:15.164Z,11.00
2022-08-28T07:05:48.557Z,20.53
2022-08-28T07:08:18.234Z,15.03
2022-08-28T07:10:49.330Z,17.03
2022-08-28T07:13:21.614Z,17.37
2022-08-28T07:15:51.866Z,23.50
2022-08-28T07:18:21.649Z,11.70
2022-08-28T07:21:00.510Z,15.70
2022-08-28T07:23:32.223Z,16.27
2022-08-28T07:26:05.237Z,19.50
2022-08-28T07:28:38.435Z,22.30
2022-08-28T07:31:10.574Z,16.60
2022-08-28T07:33:42.303Z,16.07
2022-08-28T07:36:15.968Z,20.10
2022-08-28T07:39:01.504Z,22.20
2022-08-28T07:41:33.222Z,16.70
2022-08-28T07:44:18.618Z,9.83
2022-08-28T07:46:49.403Z,12.43
2022-08-28T07:49:19.686Z,15.00
2022-08-28T07:51:50.529Z,12.73
2022-08-28T07:54:25.313Z,19.50
2022-08-28T07:56:56.211Z,16.00
2022-08-28T07:59:36.587Z,14.57
2022-08-28T08:02:09.867Z,15.90
2022-08-28T08:04:40.084Z,10.03
2022-08-28T08:07:12.898Z,8.50
2022-08-28T08:09:46.562Z,14.80
2022-08-28T08:12:17.832Z,12.80
2022-08-28T08:14:50.604Z,9.87
2022-08-28T08:17:20.299Z,20.10
2022-08-28T08:19:51.031Z,15.80
2022-08-28T08:22:20.871Z,15.30
2022-08-28T08:24:50.559Z,10.53
2022-08-28T08:27:21.302Z,9.60
2022-08-28T08:29:54.569Z,5.20
2022-08-28T08:32:24.278Z,16.97
2022-08-28T08:34:58.477Z,12.27
2022-08-28T08:37:29.230Z,7.97
2022-08-28T08:39:58.979Z,10.13
2022-08-28T08:42:33.159Z,18.00
2022-08-28T08:45:07.436Z,12.50
2022-08-28T08:47:43.262Z,18.37
2022-08-28T08:50:21.287Z,8.80
2022-08-28T08:53:04.314Z,11.43
2022-08-28T08:55:37.786Z,14.87
2022-08-28T08:58:11.644Z,10.53
2022-08-28T09:00:59.070Z,9.10
2022-08-28T09:03:35.261Z,10.30
2022-08-28T09:06:08.559Z,13.70
2022-08-28T09:08:44.702Z,18.40
2022-08-28T09:11:30.369Z,14.47
2022-08-28T09:14:08.446Z,14.10
2022-08-28T09:16:44.561Z,9.20
2022-08-28T09:19:23.441Z,12.93
2022-08-28T09:21:55.097Z,12.23
2022-08-28T09:24:28.450Z,12.20
2022-08-28T09:27:01.751Z,16.27
2022-08-28T09:29:35.035Z,17.83
2022-08-28T09:32:28.536Z,10.03
2022-08-28T09:35:14.332Z,16.97
2022-08-28T09:37:46.613Z,12.67
2022-08-28T09:40:48.632Z,12.73
2022-08-28T09:43:30.162Z,12.93
2022-08-28T09:46:04.550Z,15.53
2022-08-28T09:48:41.268Z,8.63
2022-08-28T09:51:14.991Z,15.20
2022-08-28T09:53:58.865Z,7.10
2022-08-28T09:56:33.525Z,13.90
2022-08-28T09:59:08.445Z,10.30
2022-08-28T10:01:59.620Z,13.47
2022-08-28T10:04:49.669Z,7.07
2022-08-28T10:07:31.094Z,9.20
2022-08-28T10:10:23.024Z,11.30
2022-08-28T10:13:03.019Z,12.33
2022-08-28T10:15:46.437Z,11.73
2022-08-28T10:18:36.830Z,15.47
2022-08-28T10:21:20.786Z,12.33
2022-08-28T10:24:07.606Z,11.43
2022-08-28T10:26:45.682Z,14.80
2022-08-28T10:29:31.461Z,13.53
2022-08-28T10:32:16.128Z,14.87
2022-08-28T10:34:55.506Z,16.03
2022-08-28T10:37:37.174Z,14.70
2022-08-28T10:40:11.710Z,8.17
2022-08-28T10:42:46.575Z,11.17
2022-08-28T10:45:19.956Z,14.40
2022-08-28T10:47:54.630Z,15.60
2022-08-28T10:50:29.608Z,14.30
2022-08-28T10:53:06.473Z,15.73
2022-08-28T10:55:41.980Z,10.80
2022-08-28T10:58:24.469Z,11.40
2022-08-28T11:00:57.857Z,12.23
2022-08-28T11:03:35.243Z,7.07
2022-08-28T11:06:11.570Z,9.77
2022-08-28T11:08:45.366Z,8.53
2022-08-28T11:11:17.626Z,10.70
2022-08-28T11:13:59.748Z,10.67
2022-08-28T11:16:40.670Z,8.47
2022-08-28T11:19:54.363Z,13.13
2022-08-28T11:22:28.772Z,11.33
2022-08-28T11:25:15.141Z,14.13
2022-08-28T11:28:17.636Z,9.20
2022-08-28T11:30:50.284Z,8.90
2022-08-28T11:33:37.712Z,11.20
2022-08-28T11:36:13.828Z,13.70
2022-08-28T11:39:06.825Z,17.80
2022-08-28T11:41:41.521Z,14.93
2022-08-28T11:44:28.412Z,8.93
2022-08-28T11:47:56.786Z,8.80
2022-08-28T11:50:33.817Z,6.50
2022-08-28T11:53:27.727Z,8.40
2022-08-28T11:56:28.317Z,12.93
2022-08-28T11:59:17.633Z,7.43
2022-08-28T12:01:49.472Z,7.27
2022-08-28T12:04:22.990Z,8.93
2022-08-28T12:06:57.314Z,7.60
2022-08-28T12:09:56.292Z,5.63
2022-08-28T12:12:54.727Z,10.87
2022-08-28T12:15:43.022Z,8.30
2022-08-28T12:18:53.816Z,9.70
2022-08-28T12:21:28.796Z,11.90
2022-08-28T12:24:07.177Z,7.83
2022-08-28T12:26:45.333Z,11.60
2022-08-28T12:29:29.793Z,11.13
2022-08-28T12:32:28.881Z,13.03
2022-08-28T12:35:19.963Z,7.23
2022-08-28T12:38:04.635Z,6.77
2022-08-28T12:40:53.491Z,11.53
2022-08-28T12:43:34.964Z,10.80
2022-08-28T12:46:07.572Z,10.13
2022-08-28T12:48:54.403Z,6.63
2022-08-28T12:51:26.579Z,6.23
2022-08-28T12:54:04.427Z,10.90
2022-08-28T12:56:36.626Z,8.30
2022-08-28T12:59:27.884Z,5.67
2022-08-28T13:02:04.717Z,8.37
2022-08-28T13:04:36.966Z,15.63
2022-08-28T13:07:12.128Z,8.80
2022-08-28T13:09:53.015Z,6.93
2022-08-28T13:12:54.623Z,10.90
2022-08-28T13:15:24.405Z,12.33
2022-08-28T13:17:55.382Z,17.53
2022-08-28T13:20:30.175Z,5.60
2022-08-28T13:23:01.062Z,14.07
2022-08-28T13:25:36.510Z,11.50
2022-08-28T13:28:14.042Z,13.40
2022-08-28T13:30:44.150Z,16.93
2022-08-28T13:33:22.811Z,8.23
2022-08-28T13:35:53.751Z,9.77
2022-08-28T13:38:25.153Z,4.70
2022-08-28T13:41:01.404Z,7.03
2022-08-28T13:43:44.929Z,9.80
2022-08-28T13:46:14.759Z,6.83
2022-08-28T13:48:45.713Z,10.20
2022-08-28T13:51:20.947Z,4.73
2022-08-28T13:53:51.163Z,6.13
2022-08-28T13:56:25.208Z,7.60
2022-08-28T13:58:57.645Z,7.67
2022-08-28T14:01:49.837Z,8.47
2022-08-28T14:04:17.059Z,12.60
2022-08-28T14:06:50.918Z,11.80
2022-08-28T14:09:20.614Z,10.03
2022-08-28T14:11:54.579Z,8.40
2022-08-28T14:14:24.850Z,5.33
2022-08-28T14:16:55.403Z,13.63
2022-08-28T14:19:25.523Z,6.37
2022-08-28T14:21:55.891Z,7.73
2022-08-28T14:24:25.991Z,8.40
2022-08-28T14:26:59.762Z,9.30
2022-08-28T14:29:31.502Z,11.20
2022-08-28T14:32:02.050Z,9.50
2022-08-28T14:34:31.875Z,6.20
2022-08-28T14:37:02.603Z,10.83
2022-08-28T14:39:35.879Z,8.93
2022-08-28T14:42:13.170Z,5.70
2022-08-28T14:44:43.155Z,6.97
2022-08-28T14:47:12.934Z,8.63
2022-08-28T14:49:42.766Z,10.67
2022-08-28T14:52:12.640Z,11.50
2022-08-28T14:54:45.750Z,9.43
2022-08-28T14:57:18.017Z,9.37
2022-08-28T14:59:49.309Z,11.60
2022-08-28T15:02:19.241Z,10.23
2022-08-28T15:04:49.205Z,6.83
2022-08-28T15:07:21.349Z,4.90
2022-08-28T15:09:51.151Z,7.70
2022-08-28T15:12:24.143Z,8.20
2022-08-28T15:14:55.311Z,14.00
2022-08-28T15:17:34.343Z,8.20
2022-08-28T15:20:04.893Z,8.77
2022-08-28T15:22:36.436Z,5.53
2022-08-28T15:25:06.490Z,10.40
2022-08-28T15:27:41.167Z,7.87
2022-08-28T15:30:12.160Z,7.20
2022-08-28T15:32:44.699Z,4.83
2022-08-28T15:35:16.068Z,7.13
2022-08-28T15:37:45.984Z,4.67
2022-08-28T15:40:28.396Z,7.63
2022-08-28T15:43:01.837Z,5.97
2022-08-28T15:45:31.872Z,6.33
2022-08-28T15:48:01.839Z,5.83
2022-08-28T15:50:31.826Z,7.87
2022-08-28T15:53:01.749Z,8.50
2022-08-28T15:55:33.121Z,5.90
2022-08-28T15:58:14.096Z,7.60
2022-08-28T16:00:44.836Z,5.57
2022-08-28T16:03:14.748Z,7.87
2022-08-28T16:05:45.644Z,8.33
2022-08-28T16:08:15.437Z,6.30
2022-08-28T16:10:50.199Z,7.00
2022-08-28T16:13:23.803Z,10.00
2022-08-28T16:15:53.536Z,11.27
2022-08-28T16:18:23.364Z,7.43
2022-08-28T16:20:53.119Z,11.43
2022-08-28T16:23:22.981Z,5.33
2022-08-28T16:25:52.701Z,9.13
2022-08-28T16:28:26.038Z,9.43
2022-08-28T16:30:57.143Z,7.07
2022-08-28T16:33:27.181Z,8.33
2022-08-28T16:35:56.873Z,6.77
2022-08-28T16:38:27.484Z,11.47
2022-08-28T16:40:57.278Z,10.20
2022-08-28T16:43:29.615Z,8.17
2022-08-28T16:45:59.831Z,9.47
2022-08-28T16:48:29.463Z,5.63
2022-08-28T16:50:59.096Z,10.57
2022-08-28T16:53:28.923Z,9.33
2022-08-28T16:55:58.654Z,8.40
2022-08-28T16:58:31.090Z,7.00
2022-08-28T17:01:01.127Z,11.33
2022-08-28T17:03:31.943Z,11.00
2022-08-28T17:06:05.853Z,11.10
2022-08-28T17:08:35.662Z,7.23
2022-08-28T17:11:06.608Z,9.30
2022-08-28T17:13:40.206Z,7.80
2022-08-28T17:16:10.743Z,16.07
2022-08-28T17:18:47.440Z,12.40
2022-08-28T17:21:35.159Z,11.10
2022-08-28T17:24:06.889Z,9.00
2022-08-28T17:26:36.784Z,9.40
2022-08-28T17:29:09.168Z,11.87
2022-08-28T17:31:39.455Z,10.17
2022-08-28T17:34:10.532Z,10.90
2022-08-28T17:36:43.027Z,11.13
2022-08-28T17:39:16.594Z,9.23
2022-08-28T17:41:46.353Z,9.13
2022-08-28T17:44:18.685Z,8.63
2022-08-28T17:46:48.511Z,6.00
2022-08-28T17:49:19.334Z,8.40
2022-08-28T17:51:49.067Z,7.67
2022-08-28T17:54:21.731Z,12.80
2022-08-28T17:56:52.174Z,11.90
2022-08-28T17:59:27.670Z,8.37
2022-08-28T18:01:58.429Z,11.60
2022-08-28T18:04:28.112Z,13.07
2022-08-28T18:06:58.496Z,12.40
2022-08-28T18:09:28.214Z,20.57
2022-08-28T18:11:57.987Z,15.83
2022-08-28T18:14:31.362Z,11.00
2022-08-28T18:17:01.021Z,6.47
2022-08-28T18:19:30.810Z,5.30
2022-08-28T18:22:00.649Z,6.07
2022-08-28T18:24:30.327Z,6.40
2022-08-28T18:27:02.071Z,8.67
2022-08-28T18:29:34.410Z,7.47
2022-08-28T18:32:04.505Z,9.43
2022-08-28T18:34:34.844Z,11.60
2022-08-28T18:37:04.577Z,12.40
2022-08-28T18:39:35.929Z,10.60
2022-08-28T18:42:06.367Z,12.97
2022-08-28T18:44:39.723Z,8.23
2022-08-28T18:47:09.568Z,13.30
2022-08-28T18:49:43.052Z,9.10
2022-08-28T18:52:13.845Z,8.70
2022-08-28T18:54:43.551Z,13.77
2022-08-28T18:57:15.376Z,12.37
2022-08-28T18:59:49.005Z,11.43
2022-08-28T19:02:19.460Z,11.30
2022-08-28T19:04:49.155Z,12.13
2022-08-28T19:07:18.874Z,10.03
2022-08-28T19:09:48.528Z,11.43
2022-08-28T19:12:18.199Z,13.00
2022-08-28T19:14:59.140Z,12.10
2022-08-28T19:17:29.889Z,10.90
2022-08-28T19:20:05.334Z,14.60
2022-08-28T19:22:35.068Z,13.63
2022-08-28T19:25:07.969Z,17.10
2022-08-28T19:27:45.181Z,14.30
2022-08-28T19:30:20.637Z,14.07
2022-08-28T19:32:52.823Z,22.03
2022-08-28T19:35:24.497Z,12.40
2022-08-28T19:37:54.768Z,19.03
2022-08-28T19:40:25.052Z,15.47
2022-08-28T19:42:57.178Z,18.73
2022-08-28T19:45:30.274Z,12.70
2022-08-28T19:48:00.041Z,16.00
2022-08-28T19:50:29.829Z,12.43
2022-08-28T19:52:59.527Z,16.63
2022-08-28T19:55:30.565Z,14.40
2022-08-28T19:58:04.091Z,12.20
2022-08-28T20:00:36.950Z,17.07
2022-08-28T20:03:08.002Z,12.40
2022-08-28T20:05:39.029Z,14.07
2022-08-28T20:08:08.783Z,11.33
2022-08-28T20:10:40.688Z,14.10
2022-08-28T20:13:10.723Z,10.27
2022-08-28T20:15:44.186Z,12.37
2022-08-28T20:18:15.369Z,11.13
2022-08-28T20:20:51.162Z,17.50
2022-08-28T20:23:21.823Z,13.40
2022-08-28T20:25:52.862Z,15.87
2022-08-28T20:28:22.827Z,13.03
2022-08-28T20:30:55.187Z,19.13
2022-08-28T20:33:24.977Z,16.87
2022-08-28T20:36:02.793Z,10.27
2022-08-28T20:38:32.482Z,11.87
2022-08-28T20:41:08.490Z,14.93
2022-08-28T20:43:39.603Z,12.90
2022-08-28T20:46:16.632Z,12.03
2022-08-28T20:48:47.425Z,12.97
2022-08-28T20:51:17.224Z,9.60
2022-08-28T20:53:48.974Z,17.10
2022-08-28T20:56:18.584Z,10.50
2022-08-28T20:58:48.285Z,12.80
2022-08-28T21:01:20.630Z,8.17
2022-08-28T21:03:50.398Z,12.23
2022-08-28T21:06:20.061Z,11.85
2022-08-28T21:08:50.376Z,21.77
2022-08-28T21:11:20.389Z,14.97
2022-08-28T21:13:50.160Z,10.90
2022-08-28T21:16:22.942Z,13.13
2022-08-28T21:19:14.642Z,10.60
2022-08-28T21:21:43.777Z,10.67
2022-08-28T21:24:16.501Z,11.40
2022-08-28T21:26:50.442Z,8.90
2022-08-28T21:29:23.495Z,8.73
2022-08-28T21:31:55.960Z,12.27
2022-08-28T21:34:25.713Z,10.17
2022-08-28T21:36:55.363Z,11.40
2022-08-28T21:39:25.052Z,17.37
2022-08-28T21:41:56.653Z,12.77
2022-08-28T21:44:26.423Z,16.27
2022-08-28T21:46:58.710Z,17.13
2022-08-28T21:49:28.441Z,10.20
2022-08-28T21:52:01.172Z,12.80
2022-08-28T21:54:30.997Z,14.53
2022-08-28T21:57:01.013Z,11.00
2022-08-28T21:59:35.956Z,10.93
2022-08-28T22:02:11.779Z,9.80
2022-08-28T22:04:41.460Z,13.87
2022-08-28T22:07:12.126Z,9.43
2022-08-28T22:09:43.062Z,10.63
2022-08-28T22:12:13.090Z,7.53
2022-08-28T22:14:42.799Z,9.67
2022-08-28T22:17:15.203Z,18.53
2022-08-28T22:19:46.749Z,11.03
2022-08-28T22:22:29.262Z,11.53
2022-08-28T22:24:58.911Z,17.40
2022-08-28T22:27:28.722Z,10.73
2022-08-28T22:29:58.761Z,14.17
2022-08-28T22:32:31.018Z,17.70
2022-08-28T22:35:01.674Z,7.03
2022-08-28T22:37:32.385Z,9.57
2022-08-28T22:40:02.083Z,10.90
2022-08-28T22:42:39.103Z,9.80
2022-08-28T22:45:11.948Z,12.97
2022-08-28T22:47:44.254Z,9.90
2022-08-28T22:50:13.985Z,16.23
2022-08-28T22:52:44.106Z,14.73
2022-08-28T22:55:15.294Z,10.77
2022-08-28T22:57:45.126Z,17.70
2022-08-28T23:00:19.523Z,12.13
2022-08-28T23:02:52.654Z,12.23
2022-08-28T23:05:23.137Z,14.80
2022-08-28T23:07:52.974Z,11.20
2022-08-28T23:10:42.062Z,20.70
2022-08-28T23:13:15.981Z,12.97
2022-08-28T23:15:46.258Z,14.90
2022-08-28T23:18:22.377Z,12.60
2022-08-28T23:20:52.498Z,17.57
2022-08-28T23:23:24.250Z,15.87
2022-08-28T23:25:54.957Z,11.50
2022-08-28T23:28:24.635Z,20.73
2022-08-28T23:30:54.502Z,14.10
2022-08-28T23:33:26.999Z,12.20
2022-08-28T23:35:56.627Z,16.00
2022-08-28T23:38:26.977Z,13.93
2022-08-28T23:40:57.170Z,12.50
2022-08-28T23:43:27.981Z,12.13
2022-08-28T23:45:57.772Z,10.53
2022-08-28T23:48:30.578Z,15.30
2022-08-28T23:51:00.397Z,10.57
2022-08-28T23:53:31.209Z,15.20
2022-08-28T23:56:04.117Z,14.00
2022-08-28T23:58:33.803Z,14.20
